Time,TemperatureF,DewpointF,PressureIn,WindDirection,WindDirectionDegrees,WindSpeedMPH,WindSpeedGustMPH,Humidity,HourlyPrecipIn,Conditions,Clouds,dailyrainin,SolarRadiationWatts/m^2,SoftwareType,DateUTC
2013-01-23 00:12:00,62.0,9.0,-100.00,East,91,18.0,23.0,12,-99.99,,,0.00,0.000000,,2013-01-23 08:12:00,
2013-01-23 00:22:00,62.0,9.0,-100.00,East,91,18.0,23.0,12,-99.99,,,0.00,0.000000,,2013-01-23 08:22:00,
2013-01-23 01:12:00,62.0,9.0,-100.00,East,91,16.0,24.0,12,-99.99,,,0.00,0.000000,,2013-01-23 09:12:00,
2013-01-23 01:22:00,62.0,9.0,-100.00,East,91,16.0,24.0,12,-99.99,,,0.00,0.000000,,2013-01-23 09:22:00,
2013-01-23 02:12:00,58.0,12.0,-100.00,East,83,16.0,21.0,16,-99.99,,,0.00,0.000000,,2013-01-23 10:12:00,
2013-01-23 02:22:00,58.0,12.0,-100.00,East,83,16.0,21.0,16,-99.99,,,0.00,0.000000,,2013-01-23 10:22:00,
2013-01-23 02:32:00,58.0,12.0,-100.00,East,83,16.0,21.0,16,-99.99,,,0.00,0.000000,,2013-01-23 10:32:00,
2013-01-23 02:42:00,58.0,12.0,-100.00,East,83,16.0,21.0,16,-99.99,,,0.00,0.000000,,2013-01-23 10:42:00,
2013-01-23 03:12:00,60.0,11.0,-100.00,East,86,13.0,27.0,14,0.00,,,0.00,0.000000,,2013-01-23 11:12:00,
2013-01-23 03:22:00,60.0,11.0,-100.00,East,86,13.0,27.0,14,0.00,,,0.00,0.000000,,2013-01-23 11:22:00,
2013-01-23 04:12:00,62.0,9.0,-100.00,East,88,19.0,25.0,12,-99.99,,,0.00,0.000000,,2013-01-23 12:12:00,
2013-01-23 04:22:00,62.0,9.0,-100.00,East,88,19.0,25.0,12,-99.99,,,0.00,0.000000,,2013-01-23 12:22:00,
2013-01-23 05:12:00,61.0,10.0,-100.00,East,84,16.0,25.0,13,-99.99,,,0.00,0.000000,,2013-01-23 13:12:00,
2013-01-23 05:23:00,61.0,10.0,-100.00,East,84,16.0,25.0,13,-99.99,,,0.00,0.000000,,2013-01-23 13:23:00,
2013-01-23 07:12:00,56.0,10.0,-100.00,ENE,76,16.0,23.0,16,-99.99,,,0.00,1.000000,,2013-01-23 15:12:00,
2013-01-23 07:22:00,56.0,10.0,-100.00,ENE,76,16.0,23.0,16,-99.99,,,0.00,1.000000,,2013-01-23 15:22:00,
2013-01-23 07:33:00,56.0,10.0,-100.00,ENE,76,16.0,23.0,16,-99.99,,,0.00,1.000000,,2013-01-23 15:33:00,
2013-01-23 07:43:00,56.0,10.0,-100.00,ENE,76,16.0,23.0,16,-99.99,,,0.00,1.000000,,2013-01-23 15:43:00,
2013-01-23 08:03:00,61.0,10.0,-100.00,East,89,14.0,22.0,13,0.00,,,0.00,16.000000,,2013-01-23 16:03:00,
2013-01-23 08:32:00,61.0,10.0,-100.00,East,89,14.0,22.0,13,0.00,,,0.00,16.000000,,2013-01-23 16:32:00,
2013-01-23 09:12:00,61.0,11.0,-100.00,East,86,14.0,22.0,14,-99.99,,,0.00,80.000000,,2013-01-23 17:12:00,
2013-01-23 09:22:00,61.0,11.0,-100.00,East,86,14.0,22.0,14,-99.99,,,0.00,80.000000,,2013-01-23 17:22:00,
2013-01-23 09:33:00,61.0,11.0,-100.00,East,86,14.0,22.0,14,-99.99,,,0.00,80.000000,,2013-01-23 17:33:00,
2013-01-23 10:12:00,63.0,18.0,-100.00,East,81,14.0,19.0,17,0.00,,,0.00,177.000000,,2013-01-23 18:12:00,
2013-01-23 10:23:00,63.0,18.0,-100.00,East,81,14.0,19.0,17,0.00,,,0.00,177.000000,,2013-01-23 18:23:00,
2013-01-23 10:33:00,63.0,18.0,-100.00,East,81,14.0,19.0,17,0.00,,,0.00,177.000000,,2013-01-23 18:33:00,
2013-01-23 10:43:00,63.0,18.0,-100.00,East,81,14.0,19.0,17,0.00,,,0.00,177.000000,,2013-01-23 18:43:00,
2013-01-23 11:12:00,64.0,18.0,-100.00,East,91,13.0,19.0,17,0.00,,,0.00,182.000000,,2013-01-23 19:12:00,
2013-01-23 11:22:00,64.0,18.0,-100.00,East,91,13.0,19.0,17,0.00,,,0.00,182.000000,,2013-01-23 19:22:00,
2013-01-23 11:33:00,64.0,18.0,-100.00,East,91,13.0,19.0,17,0.00,,,0.00,182.000000,,2013-01-23 19:33:00,
2013-01-23 11:42:00,64.0,18.0,-100.00,East,91,13.0,19.0,17,0.00,,,0.00,182.000000,,2013-01-23 19:42:00,
2013-01-23 12:12:00,67.0,22.0,-100.00,ENE,71,9.0,15.0,18,0.00,,,0.00,292.000000,,2013-01-23 20:12:00,
2013-01-23 12:23:00,67.0,22.0,-100.00,ENE,71,9.0,15.0,18,0.00,,,0.00,292.000000,,2013-01-23 20:23:00,
2013-01-23 12:32:00,67.0,22.0,-100.00,ENE,71,9.0,15.0,18,0.00,,,0.00,292.000000,,2013-01-23 20:32:00,
2013-01-23 12:42:00,67.0,22.0,-100.00,ENE,71,9.0,15.0,18,0.00,,,0.00,292.000000,,2013-01-23 20:42:00,
2013-01-23 13:12:00,69.0,22.0,-100.00,NE,54,7.0,13.0,17,0.00,,,0.00,375.000000,,2013-01-23 21:12:00,
2013-01-23 13:22:00,69.0,22.0,-100.00,NE,54,7.0,13.0,17,0.00,,,0.00,375.000000,,2013-01-23 21:22:00,
2013-01-23 13:33:00,69.0,22.0,-100.00,NE,54,7.0,13.0,17,0.00,,,0.00,375.000000,,2013-01-23 21:33:00,
2013-01-23 13:42:00,69.0,22.0,-100.00,NE,54,7.0,13.0,17,0.00,,,0.00,375.000000,,2013-01-23 21:42:00,
2013-01-23 14:12:00,70.0,25.0,-100.00,WSW,245,3.0,8.0,18,0.00,,,-99.99,139.000000,,2013-01-23 22:12:00,
2013-01-23 14:22:00,70.0,25.0,-100.00,WSW,245,3.0,8.0,18,0.00,,,-99.99,139.000000,,2013-01-23 22:22:00,
2013-01-23 14:33:00,70.0,25.0,-100.00,WSW,245,3.0,8.0,18,0.00,,,-99.99,139.000000,,2013-01-23 22:33:00,
2013-01-23 14:42:00,70.0,25.0,-100.00,WSW,245,3.0,8.0,18,0.00,,,-99.99,139.000000,,2013-01-23 22:42:00,
2013-01-23 15:12:00,69.0,25.0,-100.00,SW,216,5.0,10.0,19,0.00,,,0.00,114.000000,,2013-01-23 23:12:00,
2013-01-23 15:22:00,69.0,25.0,-100.00,SW,216,5.0,10.0,19,0.00,,,0.00,114.000000,,2013-01-23 23:22:00,
2013-01-23 15:33:00,69.0,25.0,-100.00,SW,216,5.0,10.0,19,0.00,,,0.00,114.000000,,2013-01-23 23:33:00,
2013-01-23 15:42:00,69.0,25.0,-100.00,SW,216,5.0,10.0,19,0.00,,,0.00,114.000000,,2013-01-23 23:42:00,
2013-01-23 16:12:00,67.0,26.0,-100.00,WSW,242,7.0,12.0,21,0.00,,,0.00,66.000000,,2013-01-24 00:12:00,
2013-01-23 16:22:00,67.0,26.0,-100.00,WSW,242,7.0,12.0,21,0.00,,,0.00,66.000000,,2013-01-24 00:22:00,
2013-01-23 16:32:00,67.0,26.0,-100.00,WSW,242,7.0,12.0,21,0.00,,,0.00,66.000000,,2013-01-24 00:32:00,
2013-01-23 16:42:00,67.0,26.0,-100.00,WSW,242,7.0,12.0,21,0.00,,,0.00,66.000000,,2013-01-24 00:42:00,
2013-01-23 17:12:00,63.0,29.0,-100.00,WSW,245,6.0,13.0,27,0.00,,,0.00,31.000000,,2013-01-24 01:12:00,
2013-01-23 17:22:00,63.0,29.0,-100.00,WSW,245,6.0,13.0,27,0.00,,,0.00,31.000000,,2013-01-24 01:22:00,
2013-01-23 17:33:00,63.0,29.0,-100.00,WSW,245,6.0,13.0,27,0.00,,,0.00,31.000000,,2013-01-24 01:33:00,
2013-01-23 17:42:00,63.0,29.0,-100.00,WSW,245,6.0,13.0,27,0.00,,,0.00,31.000000,,2013-01-24 01:42:00,
2013-01-23 18:12:00,62.0,27.0,-100.00,SSW,203,9.0,14.0,26,0.00,,,0.00,3.000000,,2013-01-24 02:12:00,
2013-01-23 18:22:00,62.0,27.0,-100.00,SSW,203,9.0,14.0,26,0.00,,,0.00,3.000000,,2013-01-24 02:22:00,
2013-01-23 18:32:00,62.0,27.0,-100.00,SSW,203,9.0,14.0,26,0.00,,,0.00,3.000000,,2013-01-24 02:32:00,
2013-01-23 18:42:00,62.0,27.0,-100.00,SSW,203,9.0,14.0,26,0.00,,,0.00,3.000000,,2013-01-24 02:42:00,
2013-01-23 19:12:00,60.0,22.0,-100.00,SW,219,6.0,15.0,23,0.00,,,0.00,1.000000,,2013-01-24 03:12:00,
2013-01-23 19:22:00,60.0,22.0,-100.00,SW,219,6.0,15.0,23,0.00,,,0.00,1.000000,,2013-01-24 03:22:00,
2013-01-23 19:32:00,60.0,22.0,-100.00,SW,219,6.0,15.0,23,0.00,,,0.00,1.000000,,2013-01-24 03:32:00,
2013-01-23 19:42:00,60.0,22.0,-100.00,SW,219,6.0,15.0,23,0.00,,,0.00,1.000000,,2013-01-24 03:42:00,
2013-01-23 20:12:00,61.0,23.0,-100.00,East,90,8.0,11.0,23,0.00,,,0.00,0.000000,,2013-01-24 04:12:00,
2013-01-23 20:22:00,61.0,23.0,-100.00,East,90,8.0,11.0,23,0.00,,,0.00,0.000000,,2013-01-24 04:22:00,
2013-01-23 20:32:00,61.0,23.0,-100.00,East,90,8.0,11.0,23,0.00,,,0.00,0.000000,,2013-01-24 04:32:00,
2013-01-23 20:42:00,61.0,23.0,-100.00,East,90,8.0,11.0,23,0.00,,,0.00,0.000000,,2013-01-24 04:42:00,
2013-01-23 21:12:00,60.0,25.0,-100.00,East,90,8.0,10.0,26,0.00,,,0.00,0.000000,,2013-01-24 05:12:00,
2013-01-23 21:22:00,60.0,25.0,-100.00,East,90,8.0,10.0,26,0.00,,,0.00,0.000000,,2013-01-24 05:22:00,
2013-01-23 21:32:00,60.0,25.0,-100.00,East,90,8.0,10.0,26,0.00,,,0.00,0.000000,,2013-01-24 05:32:00,
2013-01-23 21:42:00,60.0,25.0,-100.00,East,90,8.0,10.0,26,0.00,,,0.00,0.000000,,2013-01-24 05:42:00,
2013-01-23 22:12:00,56.0,33.0,-100.00,East,90,9.0,14.0,42,0.00,,,0.00,0.000000,,2013-01-24 06:12:00,
2013-01-23 22:22:00,56.0,33.0,-100.00,East,90,9.0,14.0,42,0.00,,,0.00,0.000000,,2013-01-24 06:22:00,
2013-01-23 22:32:00,56.0,33.0,-100.00,East,90,9.0,14.0,42,0.00,,,0.00,0.000000,,2013-01-24 06:32:00,
2013-01-23 22:42:00,56.0,33.0,-100.00,East,90,9.0,14.0,42,0.00,,,0.00,0.000000,,2013-01-24 06:42:00,
2013-01-23 23:12:00,55.0,36.0,-100.00,East,96,12.0,15.0,48,0.00,,,0.00,0.000000,,2013-01-24 07:12:00,
2013-01-23 23:22:00,55.0,36.0,-100.00,East,96,12.0,15.0,48,0.00,,,0.00,0.000000,,2013-01-24 07:22:00,
2013-01-23 23:32:00,55.0,36.0,-100.00,East,96,12.0,15.0,48,0.00,,,0.00,0.000000,,2013-01-24 07:32:00,
2013-01-23 23:42:00,55.0,36.0,-100.00,East,96,12.0,15.0,48,0.00,,,0.00,0.000000,,2013-01-24 07:42:00,